createdAt,value
2023-04-26T00:03:30.742Z,99.11
2023-04-26T00:13:35.271Z,99.30
2023-04-26T00:23:39.138Z,99.70
2023-04-26T00:33:44.386Z,99.89
2023-04-26T00:43:47.231Z,99.98
2023-04-26T00:53:51.592Z,99.64
2023-04-26T01:03:54.661Z,99.29
2023-04-26T01:13:59.339Z,99.09
2023-04-26T01:24:04.229Z,99.08
2023-04-26T01:34:07.250Z,99.28
2023-04-26T01:44:11.539Z,99.45
2023-04-26T01:54:14.428Z,99.27
2023-04-26T02:04:19.045Z,99.34
2023-04-26T02:14:22.049Z,99.28
2023-04-26T02:24:26.429Z,99.14
2023-04-26T02:34:29.829Z,99.43
2023-04-26T02:44:34.171Z,99.62
2023-04-26T02:54:36.958Z,99.62
2023-04-26T03:04:42.196Z,100.00
2023-04-26T03:14:45.175Z,100.00
2023-04-26T03:24:49.616Z,100.00
2023-04-26T03:34:52.514Z,100.00
2023-04-26T03:44:57.309Z,100.00
2023-04-26T03:55:00.819Z,100.00
2023-04-26T04:05:05.840Z,100.00
2023-04-26T04:15:10.533Z,100.00
2023-04-26T04:25:14.825Z,99.19
2023-04-26T04:35:19.376Z,98.82
2023-04-26T04:45:23.883Z,99.28
2023-04-26T04:55:27.309Z,98.71
2023-04-26T05:05:31.691Z,98.77
2023-04-26T05:15:34.492Z,98.36
2023-04-26T05:25:39.653Z,98.47
2023-04-26T05:35:42.439Z,99.22
2023-04-26T05:45:52.482Z,98.88
2023-04-26T05:55:55.554Z,98.39
2023-04-26T06:06:00.488Z,96.85
2023-04-26T06:16:03.519Z,94.55
2023-04-26T06:26:08.025Z,91.79
2023-04-26T06:36:13.476Z,91.75
2023-04-26T06:46:18.009Z,91.26
2023-04-26T06:56:20.908Z,90.83
2023-04-26T07:06:26.744Z,85.78
2023-04-26T07:16:29.714Z,84.77
2023-04-26T07:26:36.305Z,81.61
2023-04-26T07:36:39.458Z,75.87
2023-04-26T07:46:43.779Z,77.73
2023-04-26T07:56:46.733Z,77.50
2023-04-26T08:06:51.126Z,79.37
2023-04-26T08:16:54.262Z,78.27
2023-04-26T08:27:01.701Z,76.89
2023-04-26T08:37:05.826Z,74.04
2023-04-26T08:47:14.424Z,69.92
2023-04-26T08:57:18.233Z,66.66
2023-04-26T09:07:31.887Z,62.49
2023-04-26T09:17:39.256Z,61.41
2023-04-26T09:27:52.987Z,60.61
2023-04-26T09:38:09.049Z,59.56
2023-04-26T09:48:26.215Z,57.40
2023-04-26T09:58:30.023Z,57.17
2023-04-26T10:08:34.735Z,52.06
2023-04-26T10:18:38.026Z,50.16
2023-04-26T10:29:04.244Z,47.09
2023-04-26T10:39:22.367Z,55.42
2023-04-26T10:49:27.024Z,64.66
2023-04-26T10:59:43.485Z,71.33
2023-04-26T11:09:53.062Z,72.16
2023-04-26T11:19:56.024Z,74.26
2023-04-26T11:30:03.528Z,70.13
2023-04-26T11:40:11.582Z,67.84
2023-04-26T11:50:16.308Z,60.11
2023-04-26T12:00:20.474Z,53.41
2023-04-26T12:10:28.098Z,51.21
2023-04-26T12:20:33.108Z,52.19
2023-04-26T12:30:40.269Z,52.87
2023-04-26T12:40:47.147Z,56.18
2023-04-26T12:50:53.564Z,56.82
2023-04-26T13:00:56.538Z,56.99
2023-04-26T13:11:00.919Z,55.04
2023-04-26T13:21:04.075Z,53.31
2023-04-26T13:31:08.429Z,52.78
2023-04-26T13:41:11.741Z,53.83
2023-04-26T13:51:16.013Z,53.72
2023-04-26T14:01:19.213Z,53.02
2023-04-26T14:11:24.267Z,53.29
2023-04-26T14:21:27.286Z,53.75
2023-04-26T14:31:32.282Z,54.98
2023-04-26T14:41:35.121Z,55.88
2023-04-26T14:51:39.487Z,58.09
2023-04-26T15:01:42.537Z,59.46
2023-04-26T15:11:46.965Z,59.20
2023-04-26T15:21:52.260Z,60.29
2023-04-26T15:31:56.800Z,61.56
2023-04-26T15:41:59.651Z,62.39
2023-04-26T15:52:04.596Z,63.42
2023-04-26T16:02:10.447Z,67.03
2023-04-26T16:12:14.884Z,69.45
2023-04-26T16:22:17.880Z,70.32
2023-04-26T16:32:22.397Z,71.04
2023-04-26T16:42:25.223Z,71.64
2023-04-26T16:52:29.547Z,72.59
2023-04-26T17:02:32.592Z,72.84
2023-04-26T17:12:37.027Z,73.75
2023-04-26T17:22:40.966Z,73.97
2023-04-26T17:32:45.899Z,74.59
2023-04-26T17:42:48.922Z,75.41
2023-04-26T17:52:53.282Z,76.42
2023-04-26T18:02:59.129Z,77.20
2023-04-26T18:13:03.615Z,77.90
2023-04-26T18:23:06.653Z,78.73
2023-04-26T18:33:11.636Z,79.58
2023-04-26T18:43:14.671Z,81.03
2023-04-26T18:53:19.718Z,81.67
2023-04-26T19:03:23.354Z,82.28
2023-04-26T19:13:28.042Z,83.16
2023-04-26T19:23:34.315Z,83.21
2023-04-26T19:33:38.688Z,83.68
2023-04-26T19:43:41.930Z,84.58
2023-04-26T19:53:46.259Z,83.89
2023-04-26T20:03:49.494Z,84.03
2023-04-26T20:13:54.376Z,83.69
2023-04-26T20:23:57.380Z,83.63
2023-04-26T20:34:01.728Z,83.01
2023-04-26T20:44:05.590Z,83.42
2023-04-26T20:54:09.978Z,83.20
2023-04-26T21:04:13.025Z,83.18
2023-04-26T21:14:17.499Z,83.92
2023-04-26T21:24:20.387Z,83.97
2023-04-26T21:34:24.723Z,83.38
2023-04-26T21:44:27.497Z,82.94
2023-04-26T21:54:31.663Z,82.68
2023-04-26T22:04:34.575Z,82.96
2023-04-26T22:14:39.070Z,82.88
2023-04-26T22:24:42.242Z,82.67
2023-04-26T22:34:46.531Z,82.36
2023-04-26T22:44:49.358Z,82.01
2023-04-26T22:54:53.596Z,82.09
2023-04-26T23:04:56.906Z,81.97
2023-04-26T23:15:02.291Z,81.76
2023-04-26T23:25:05.772Z,81.93
2023-04-26T23:35:10.841Z,81.27
2023-04-26T23:45:13.853Z,81.41
2023-04-26T23:55:18.311Z,81.14
